South Wilmington, Illinois
Current Conditions -  °F | °C
As of 4:15 AM on Thursday 23 Oct 2014 (Local Time) from KC09 Reporting Station
Haze Haze  
Wind Chill: 33°   Ceiling: Unl
Heat Index: 33°   Visibility: 3mi
Dew Point: 33°   Wind: 0mph
Humidity: 100%   Direction: NA
Pressure: 30.21"   Gusts: NA
Location:  41.17°N, 88.28°W
Report Text: KC09 230915Z AUTO 00000KT 3SM BR CLR 01/01 A3021 RMK AO2 T00050005
Loading
Personal Weather Stations






























Interactive Weather Map
Tropical Storm Tracking
New forecast layout! Learn more

10-Day Weather Forecast

Advertisements
Track Severe Weather on mobile